ACA821 LEBL-CYYZ
Flight info
| Callsign | ACA821 |
|---|---|
| Flight time | N/A |
| Altitude | 36000 |
| Route | GRAUS DCT POSSY DCT MARIO DCT SURCO DCT RONNY DCT RONKO DCT GOSVI DCT TURPU DCT PPN DCT MALOB DCT CEGAM DCT BLV/N0483F350 M190 LASKU/N0480F360 DCT VES DCT ADVAT/M084F360 DCT 46N015W 47N020W 4730N03000W 4730N04000W 47N050W DCT PORTI/N0485F360 DCT IKURO/N0492F380 DCT BEMEK Q864 DERDO DCT DAXUG DCT MUTIB DCT PUPOV DCT SAVEX Q806 TUKIR RAGID6 |
| Aircraft | B77W/H-SDE1E2E3FGHIJ2J3J4J5M1RWXY/LB1D1 |
Departure
| Time | 2026-05-08 08:41 |
|---|---|
| Airport | Josep Tarradellas Barcelona-El Prat Airport (LEBL) |
Arrival
| Time | N/A |
|---|---|
| Airport | Toronto Pearson International Airport (CYYZ) |
| Time | Latitude | Longitude | Altitude | Speed | Heading |
|---|---|---|---|---|---|
| 2026-05-08 08:03 | 41.28590 | 2.07414 | 22 ft | 0 kts | 334° |
| 2026-05-08 08:24 | 41.28590 | 2.07415 | 22 ft | 0 kts | 334° |
| 2026-05-08 08:29 | 41.28579 | 2.07421 | 22 ft | 2 kts | 334° |
| 2026-05-08 08:30 | 41.28565 | 2.07430 | 22 ft | 2 kts | 334° |
| 2026-05-08 08:30 | 41.28551 | 2.07438 | 22 ft | 2 kts | 340° |
| 2026-05-08 08:30 | 41.28522 | 2.07438 | 22 ft | 2 kts | 21° |
| 2026-05-08 08:31 | 41.28509 | 2.07429 | 22 ft | 2 kts | 40° |
| 2026-05-08 08:31 | 41.28499 | 2.07415 | 22 ft | 2 kts | 57° |
| 2026-05-08 08:31 | 41.28495 | 2.07404 | 23 ft | 0 kts | 66° |
| 2026-05-08 08:33 | 41.28495 | 2.07405 | 23 ft | 0 kts | 66° |
| 2026-05-08 08:34 | 41.28505 | 2.07435 | 22 ft | 6 kts | 65° |
| 2026-05-08 08:34 | 41.28531 | 2.07510 | 22 ft | 11 kts | 66° |
| 2026-05-08 08:34 | 41.28567 | 2.07616 | 22 ft | 12 kts | 65° |
| 2026-05-08 08:34 | 41.28581 | 2.07673 | 22 ft | 5 kts | 89° |
| 2026-05-08 08:35 | 41.28570 | 2.07709 | 22 ft | 3 kts | 134° |
| 2026-05-08 08:35 | 41.28545 | 2.07746 | 22 ft | 7 kts | 119° |
| 2026-05-08 08:35 | 41.28553 | 2.07836 | 21 ft | 13 kts | 62° |
| 2026-05-08 08:35 | 41.28602 | 2.07974 | 19 ft | 18 kts | 65° |
| 2026-05-08 08:36 | 41.28661 | 2.08145 | 19 ft | 22 kts | 65° |
| 2026-05-08 08:36 | 41.28726 | 2.08334 | 19 ft | 21 kts | 65° |
| 2026-05-08 08:36 | 41.28783 | 2.08500 | 22 ft | 17 kts | 66° |
| 2026-05-08 08:36 | 41.28831 | 2.08643 | 23 ft | 18 kts | 65° |
| 2026-05-08 08:37 | 41.28892 | 2.08818 | 25 ft | 22 kts | 65° |
| 2026-05-08 08:37 | 41.28952 | 2.08993 | 26 ft | 19 kts | 65° |
| 2026-05-08 08:37 | 41.29007 | 2.09153 | 26 ft | 19 kts | 65° |
| 2026-05-08 08:37 | 41.29064 | 2.09320 | 27 ft | 21 kts | 65° |
| 2026-05-08 08:38 | 41.29140 | 2.09542 | 27 ft | 30 kts | 65° |
| 2026-05-08 08:38 | 41.29225 | 2.09789 | 28 ft | 28 kts | 65° |
| 2026-05-08 08:38 | 41.29300 | 2.09979 | 29 ft | 20 kts | 62° |
| 2026-05-08 08:38 | 41.29308 | 2.10148 | 30 ft | 17 kts | 108° |
| 2026-05-08 08:39 | 41.29273 | 2.10259 | 31 ft | 7 kts | 120° |
| 2026-05-08 08:39 | 41.29240 | 2.10288 | 32 ft | 4 kts | 178° |
| 2026-05-08 08:39 | 41.29210 | 2.10269 | 32 ft | 5 kts | 224° |
| 2026-05-08 08:39 | 41.29182 | 2.10211 | 32 ft | 0 kts | 245° |
| 2026-05-08 08:40 | 41.29181 | 2.10209 | 32 ft | 2 kts | 245° |
| 2026-05-08 08:40 | 41.29103 | 2.09981 | 33 ft | 64 kts | 245° |
| 2026-05-08 08:40 | 41.28812 | 2.09131 | 32 ft | 137 kts | 245° |
| 2026-05-08 08:40 | 41.28327 | 2.07723 | 175 ft | 186 kts | 245° |
| 2026-05-08 08:41 | 41.27754 | 2.06188 | 1031 ft | 190 kts | 239° |
| 2026-05-08 08:41 | 41.26843 | 2.04934 | 1635 ft | 200 kts | 208° |
| 2026-05-08 08:41 | 41.25442 | 2.04477 | 2040 ft | 219 kts | 185° |
| 2026-05-08 08:41 | 41.23928 | 2.04330 | 2856 ft | 220 kts | 184° |
| 2026-05-08 08:42 | 41.22392 | 2.04191 | 3588 ft | 224 kts | 184° |
| 2026-05-08 08:42 | 41.20825 | 2.04051 | 4340 ft | 227 kts | 184° |
| 2026-05-08 08:42 | 41.19291 | 2.03661 | 5033 ft | 230 kts | 204° |
| 2026-05-08 08:42 | 41.17978 | 2.02399 | 5617 ft | 237 kts | 228° |
| 2026-05-08 08:43 | 41.16935 | 2.00677 | 6233 ft | 243 kts | 232° |
| 2026-05-08 08:43 | 41.15908 | 1.98895 | 6943 ft | 246 kts | 232° |
| 2026-05-08 08:43 | 41.14860 | 1.97095 | 7644 ft | 249 kts | 232° |
| 2026-05-08 08:43 | 41.13789 | 1.95242 | 8339 ft | 252 kts | 236° |
| 2026-05-08 08:44 | 41.13060 | 1.93114 | 8918 ft | 261 kts | 251° |
| 2026-05-08 08:44 | 41.12506 | 1.90769 | 9335 ft | 278 kts | 253° |
| 2026-05-08 08:44 | 41.11930 | 1.88230 | 9871 ft | 291 kts | 253° |
| 2026-05-08 08:44 | 41.11525 | 1.85585 | 10557 ft | 298 kts | 267° |
| 2026-05-08 08:45 | 41.11690 | 1.82812 | 11028 ft | 314 kts | 283° |
| 2026-05-08 08:45 | 41.12482 | 1.80019 | 11440 ft | 332 kts | 296° |
| 2026-05-08 08:45 | 41.13723 | 1.77363 | 11904 ft | 349 kts | 308° |
| 2026-05-08 08:45 | 41.15468 | 1.75007 | 12378 ft | 365 kts | 321° |
| 2026-05-08 08:46 | 41.17606 | 1.73139 | 12860 ft | 380 kts | 330° |
| 2026-05-08 08:46 | 41.19972 | 1.71350 | 13379 ft | 395 kts | 328° |
| 2026-05-08 08:46 | 41.22186 | 1.69180 | 14015 ft | 404 kts | 319° |
| 2026-05-08 08:46 | 41.24291 | 1.66705 | 14804 ft | 409 kts | 318° |
| 2026-05-08 08:47 | 41.26426 | 1.64156 | 15602 ft | 414 kts | 317° |
| 2026-05-08 08:47 | 41.28556 | 1.61606 | 16365 ft | 418 kts | 317° |
| 2026-05-08 08:47 | 41.30728 | 1.59004 | 17125 ft | 422 kts | 317° |
| 2026-05-08 08:47 | 41.32886 | 1.56415 | 17861 ft | 426 kts | 317° |
| 2026-05-08 08:48 | 41.35109 | 1.53754 | 18596 ft | 430 kts | 318° |
| 2026-05-08 08:48 | 41.37376 | 1.51141 | 19319 ft | 434 kts | 319° |
| 2026-05-08 08:48 | 41.39666 | 1.48518 | 20042 ft | 438 kts | 319° |
| 2026-05-08 08:48 | 41.41969 | 1.45875 | 20753 ft | 442 kts | 318° |
| 2026-05-08 08:49 | 41.44293 | 1.43203 | 21450 ft | 445 kts | 318° |
| 2026-05-08 08:49 | 41.46563 | 1.40396 | 22154 ft | 448 kts | 311° |
| 2026-05-08 08:49 | 41.48490 | 1.37168 | 22814 ft | 451 kts | 302° |
| 2026-05-08 08:49 | 41.50032 | 1.33488 | 23467 ft | 452 kts | 292° |
| 2026-05-08 08:50 | 41.51094 | 1.29551 | 24088 ft | 453 kts | 283° |
| 2026-05-08 08:50 | 41.51664 | 1.25461 | 24703 ft | 454 kts | 275° |
| 2026-05-08 08:50 | 41.51955 | 1.21255 | 25361 ft | 456 kts | 273° |
| 2026-05-08 08:50 | 41.52211 | 1.17090 | 25998 ft | 458 kts | 273° |
| 2026-05-08 08:51 | 41.52470 | 1.12848 | 26626 ft | 460 kts | 273° |
| 2026-05-08 08:51 | 41.52727 | 1.08636 | 27235 ft | 462 kts | 273° |
| 2026-05-08 08:51 | 41.52989 | 1.04338 | 27866 ft | 464 kts | 273° |
| 2026-05-08 08:51 | 41.53247 | 1.00082 | 28480 ft | 465 kts | 274° |
| 2026-05-08 08:52 | 41.53501 | 0.95767 | 29086 ft | 467 kts | 274° |
| 2026-05-08 08:52 | 41.53754 | 0.91456 | 29745 ft | 467 kts | 274° |
| 2026-05-08 08:52 | 41.54007 | 0.87146 | 30579 ft | 462 kts | 274° |
| 2026-05-08 08:52 | 41.54253 | 0.82887 | 31552 ft | 452 kts | 274° |
| 2026-05-08 08:53 | 41.54615 | 0.78759 | 32397 ft | 445 kts | 280° |
| 2026-05-08 08:53 | 41.55371 | 0.74755 | 33141 ft | 441 kts | 287° |
| 2026-05-08 08:53 | 41.56488 | 0.71034 | 33838 ft | 438 kts | 294° |
| 2026-05-08 08:53 | 41.57997 | 0.67481 | 34557 ft | 435 kts | 301° |
| 2026-05-08 08:54 | 41.59799 | 0.64287 | 35063 ft | 436 kts | 308° |
| 2026-05-08 08:54 | 41.61908 | 0.61375 | 35126 ft | 437 kts | 314° |
| 2026-05-08 08:54 | 41.66872 | 0.56841 | 35101 ft | 435 kts | 328° |
| 2026-05-08 08:55 | 41.72459 | 0.53528 | 35048 ft | 441 kts | 330° |
| 2026-05-08 08:55 | 41.78051 | 0.50153 | 35010 ft | 438 kts | 330° |
| 2026-05-08 08:56 | 41.83571 | 0.46724 | 35017 ft | 437 kts | 329° |
| 2026-05-08 08:56 | 41.89048 | 0.43268 | 35024 ft | 435 kts | 329° |
| 2026-05-08 08:57 | 41.94323 | 0.39451 | 35027 ft | 428 kts | 320° |
| 2026-05-08 08:57 | 41.98649 | 0.34062 | 35031 ft | 421 kts | 306° |
| 2026-05-08 08:58 | 42.01728 | 0.27451 | 35037 ft | 418 kts | 296° |
| 2026-05-08 08:58 | 42.04345 | 0.20482 | 35033 ft | 419 kts | 295° |
| 2026-05-08 08:59 | 42.06952 | 0.13510 | 35033 ft | 419 kts | 295° |
| 2026-05-08 08:59 | 42.09555 | 0.06530 | 35035 ft | 418 kts | 295° |
| 2026-05-08 09:00 | 42.12166 | -0.00490 | 35048 ft | 417 kts | 295° |
| 2026-05-08 09:00 | 42.14746 | -0.07445 | 35051 ft | 417 kts | 295° |
| 2026-05-08 09:01 | 42.17318 | -0.14391 | 35059 ft | 417 kts | 295° |
| 2026-05-08 09:01 | 42.19900 | -0.21385 | 35064 ft | 417 kts | 295° |
| 2026-05-08 09:02 | 42.22467 | -0.28352 | 35051 ft | 417 kts | 295° |
| 2026-05-08 09:02 | 42.25041 | -0.35358 | 35038 ft | 417 kts | 295° |
| 2026-05-08 09:03 | 42.27608 | -0.42364 | 35033 ft | 416 kts | 295° |
| 2026-05-08 09:03 | 42.30157 | -0.49335 | 35033 ft | 416 kts | 295° |
| 2026-05-08 09:04 | 42.32719 | -0.56359 | 35033 ft | 416 kts | 295° |
| 2026-05-08 09:04 | 42.35268 | -0.63361 | 35031 ft | 416 kts | 295° |
| 2026-05-08 09:05 | 42.37818 | -0.70384 | 35039 ft | 416 kts | 294° |
| 2026-05-08 09:05 | 42.40340 | -0.77347 | 35034 ft | 415 kts | 294° |
| 2026-05-08 09:06 | 42.42871 | -0.84354 | 35030 ft | 415 kts | 294° |
| 2026-05-08 09:06 | 42.45387 | -0.91343 | 35029 ft | 415 kts | 294° |
| 2026-05-08 09:07 | 42.47914 | -0.98378 | 35026 ft | 415 kts | 294° |
| 2026-05-08 09:07 | 42.50437 | -1.05422 | 35030 ft | 415 kts | 294° |
| 2026-05-08 09:08 | 42.52938 | -1.12412 | 35031 ft | 415 kts | 294° |
| 2026-05-08 09:08 | 42.55451 | -1.19456 | 35019 ft | 415 kts | 294° |
| 2026-05-08 09:09 | 42.57951 | -1.26477 | 35006 ft | 415 kts | 294° |
| 2026-05-08 09:09 | 42.60439 | -1.33489 | 35001 ft | 415 kts | 294° |
| 2026-05-08 09:10 | 42.62940 | -1.40549 | 34999 ft | 414 kts | 294° |
| 2026-05-08 09:10 | 42.65431 | -1.47594 | 34993 ft | 414 kts | 294° |
| 2026-05-08 09:11 | 42.67913 | -1.54634 | 34984 ft | 414 kts | 294° |
| 2026-05-08 09:11 | 42.70375 | -1.61644 | 34975 ft | 414 kts | 294° |
| 2026-05-08 09:12 | 42.72847 | -1.68697 | 34979 ft | 414 kts | 294° |
| 2026-05-08 09:12 | 42.75819 | -1.75426 | 34979 ft | 417 kts | 300° |
| 2026-05-08 09:13 | 42.78949 | -1.82066 | 34981 ft | 417 kts | 300° |
| 2026-05-08 09:13 | 42.82061 | -1.88687 | 34983 ft | 417 kts | 300° |
| 2026-05-08 09:14 | 42.85160 | -1.95302 | 34987 ft | 417 kts | 300° |
| 2026-05-08 09:14 | 42.88292 | -2.01994 | 34991 ft | 418 kts | 300° |
| 2026-05-08 09:15 | 42.91392 | -2.08636 | 34987 ft | 419 kts | 300° |
| 2026-05-08 09:15 | 42.94524 | -2.15360 | 34973 ft | 420 kts | 300° |
| 2026-05-08 09:16 | 42.97643 | -2.22073 | 34953 ft | 421 kts | 300° |
| 2026-05-08 09:16 | 43.00782 | -2.28786 | 34941 ft | 421 kts | 301° |
| 2026-05-08 09:17 | 43.03934 | -2.35495 | 34947 ft | 422 kts | 301° |
| 2026-05-08 09:17 | 43.07106 | -2.42267 | 34947 ft | 422 kts | 301° |
| 2026-05-08 09:18 | 43.10263 | -2.49023 | 34945 ft | 423 kts | 300° |
| 2026-05-08 09:18 | 43.13459 | -2.55882 | 34942 ft | 436 kts | 299° |
| 2026-05-08 09:19 | 43.16741 | -2.62945 | 34927 ft | 447 kts | 298° |
| 2026-05-08 09:19 | 43.20119 | -2.70230 | 34917 ft | 459 kts | 298° |
| 2026-05-08 09:20 | 43.23554 | -2.77657 | 34906 ft | 470 kts | 298° |
| 2026-05-08 09:20 | 43.27096 | -2.85335 | 34909 ft | 482 kts | 298° |
| 2026-05-08 09:21 | 43.30259 | -2.93424 | 34915 ft | 482 kts | 285° |
| 2026-05-08 09:23 | 43.35200 | -3.24472 | 34923 ft | 477 kts | 277° |
| 2026-05-08 09:23 | 43.36515 | -3.33344 | 34918 ft | 478 kts | 278° |
| 2026-05-08 09:24 | 43.37863 | -3.42272 | 34913 ft | 479 kts | 278° |
| 2026-05-08 09:24 | 43.39203 | -3.51190 | 34906 ft | 480 kts | 278° |
| 2026-05-08 09:25 | 43.40544 | -3.60176 | 34899 ft | 480 kts | 278° |
| 2026-05-08 09:25 | 43.41878 | -3.69168 | 34891 ft | 480 kts | 277° |
| 2026-05-08 09:26 | 43.43198 | -3.78116 | 34883 ft | 480 kts | 277° |
| 2026-05-08 09:26 | 43.44510 | -3.87072 | 34876 ft | 480 kts | 277° |